Time;durP1;ratioP1;P1;durP2;ratioP2;P2;SDS_P1;SDS_P2;PMS_P1;PMS_P2;Temp;Humidity;BMP_temperature;BMP_pressure;BME280_temperature;BME280_humidity;BME280_pressure;Samples;Min_cycle;Max_cycle;Signal;HPM_P1;HPM_P2
2021/06/26 00:02:12;;;;;;;2.20;1.80;;;;;;;;;;5093326;28;20211;-71
2021/06/26 00:04:39;;;;;;;2.30;1.57;;;;;;;;;;5092241;28;20225;-71
2021/06/26 00:07:05;;;;;;;2.67;1.80;;;;;;;;;;5092125;28;20299;-71
2021/06/26 00:09:32;;;;;;;9.60;1.63;;;;;;;;;;5093044;28;20224;-71
2021/06/26 00:11:58;;;;;;;2.93;1.70;;;;;;;;;;5092845;28;20206;-71
2021/06/26 00:14:24;;;;;;;2.70;1.80;;;;;;;;;;5091291;28;20796;-71
2021/06/26 00:16:51;;;;;;;1.63;1.40;;;;;;;;;;5092949;28;20246;-71
2021/06/26 00:19:17;;;;;;;1.80;1.40;;;;;;;;;;5092936;28;20208;-71
2021/06/26 00:21:44;;;;;;;1.83;1.47;;;;;;;;;;5091824;28;20266;-72
2021/06/26 00:24:10;;;;;;;2.13;1.63;;;;;;;;;;5092466;28;20235;-71
2021/06/26 00:26:37;;;;;;;1.63;1.53;;;;;;;;;;5092820;28;20223;-71
2021/06/26 00:29:03;;;;;;;4.20;1.97;;;;;;;;;;5092794;28;20228;-71
2021/06/26 00:31:29;;;;;;;2.40;1.83;;;;;;;;;;5092603;28;20288;-71
2021/06/26 00:33:56;;;;;;;1.63;1.23;;;;;;;;;;5091552;28;20322;-71
2021/06/26 00:36:22;;;;;;;2.30;1.60;;;;;;;;;;5092752;28;20231;-71
2021/06/26 00:38:49;;;;;;;2.30;1.13;;;;;;;;;;5092751;28;20205;-71
2021/06/26 00:41:15;;;;;;;1.97;1.40;;;;;;;;;;5092405;28;20703;-71
2021/06/26 00:43:42;;;;;;;2.10;1.33;;;;;;;;;;5091763;28;20250;-71
2021/06/26 00:46:08;;;;;;;2.13;1.60;;;;;;;;;;5080387;28;20197;-71
2021/06/26 00:48:35;;;;;;;1.43;1.10;;;;;;;;;;5071888;28;20208;-71
2021/06/26 00:51:01;;;;;;;1.63;1.10;;;;;;;;;;5081840;28;20251;-71
2021/06/26 00:53:28;;;;;;;3.30;1.70;;;;;;;;;;5091441;28;20207;-71
2021/06/26 00:55:54;;;;;;;2.90;1.20;;;;;;;;;;5092181;28;20207;-71
2021/06/26 00:58:21;;;;;;;2.60;1.77;;;;;;;;;;5092348;28;20204;-71
2021/06/26 01:34:58;;;;;;;5.10;1.87;;;;;;;;;;5109135;27;20886;-70
2021/06/26 01:37:25;;;;;;;3.60;2.03;;;;;;;;;;5108755;28;20208;-71
2021/06/26 01:39:51;;;;;;;2.37;1.77;;;;;;;;;;5109503;28;20203;-70
2021/06/26 01:42:17;;;;;;;1.97;1.77;;;;;;;;;;5109416;28;20200;-70
2021/06/26 01:44:44;;;;;;;2.60;1.50;;;;;;;;;;5108178;28;20674;-70
2021/06/26 01:47:10;;;;;;;2.57;1.70;;;;;;;;;;5089246;28;20215;-70
2021/06/26 01:49:37;;;;;;;2.23;1.77;;;;;;;;;;5089011;28;20222;-71
2021/06/26 01:52:03;;;;;;;6.20;1.83;;;;;;;;;;5107408;28;20270;-70
2021/06/26 01:54:31;;;;;;;2.67;1.83;;;;;;;;;;5107098;28;20231;-72
2021/06/26 01:56:57;;;;;;;3.97;1.80;;;;;;;;;;5107848;28;20203;-71
2021/06/26 01:59:23;;;;;;;3.13;2.00;;;;;;;;;;5108973;28;20210;-72
2021/06/26 02:01:50;;;;;;;3.20;2.13;;;;;;;;;;5109146;28;20200;-71
2021/06/26 02:04:16;;;;;;;2.43;1.83;;;;;;;;;;5108426;28;20235;-71
2021/06/26 02:06:42;;;;;;;4.17;2.00;;;;;;;;;;5109406;28;20293;-71
2021/06/26 02:09:09;;;;;;;2.70;1.90;;;;;;;;;;5110607;28;20287;-72
2021/06/26 02:11:35;;;;;;;4.70;2.07;;;;;;;;;;5108732;28;20740;-72
2021/06/26 02:14:02;;;;;;;2.10;1.63;;;;;;;;;;5110702;28;20278;-72
2021/06/26 02:16:28;;;;;;;2.93;1.83;;;;;;;;;;5109263;28;20199;-71
2021/06/26 02:18:55;;;;;;;3.53;1.60;;;;;;;;;;5108838;28;20246;-71
2021/06/26 02:21:21;;;;;;;3.37;2.10;;;;;;;;;;5108537;28;20196;-71
2021/06/26 02:23:48;;;;;;;5.17;1.87;;;;;;;;;;5107704;28;20382;-71
2021/06/26 02:26:14;;;;;;;2.70;2.20;;;;;;;;;;5108385;28;20204;-71
2021/06/26 02:28:40;;;;;;;4.37;2.63;;;;;;;;;;5108378;28;20678;-71
2021/06/26 02:31:07;;;;;;;3.27;2.30;;;;;;;;;;5108310;28;20200;-71
2021/06/26 02:33:33;;;;;;;2.30;1.90;;;;;;;;;;5107415;28;20224;-70
2021/06/26 02:36:00;;;;;;;8.83;2.40;;;;;;;;;;5108279;28;20211;-71
2021/06/26 02:38:26;;;;;;;4.50;2.80;;;;;;;;;;5108248;28;20204;-70
2021/06/26 02:40:52;;;;;;;2.93;1.90;;;;;;;;;;5108110;28;20200;-71
2021/06/26 02:43:19;;;;;;;7.03;2.10;;;;;;;;;;5107709;28;20212;-70
2021/06/26 02:45:46;;;;;;;2.57;2.10;;;;;;;;;;5088027;28;20231;-71
2021/06/26 02:48:13;;;;;;;2.93;1.67;;;;;;;;;;5074443;28;20215;-71
2021/06/26 02:50:40;;;;;;;1.97;1.53;;;;;;;;;;5080841;28;20205;-70
2021/06/26 02:53:06;;;;;;;2.63;1.57;;;;;;;;;;5093685;28;20287;-71
2021/06/26 02:55:33;;;;;;;1.67;1.20;;;;;;;;;;5076265;28;20294;-70
2021/06/26 02:57:59;;;;;;;2.17;1.57;;;;;;;;;;5094683;28;20232;-71
2021/06/26 03:00:26;;;;;;;4.97;2.27;;;;;;;;;;5094619;28;20292;-71
2021/06/26 03:02:52;;;;;;;1.87;1.40;;;;;;;;;;5093804;28;20201;-71
2021/06/26 03:05:18;;;;;;;3.43;1.60;;;;;;;;;;5094211;28;20410;-70
2021/06/26 03:07:52;;;;;;;2.23;1.33;;;;;;;;;;5094286;28;20205;-70
2021/06/26 03:10:18;;;;;;;1.60;1.30;;;;;;;;;;5094081;28;20291;-70
2021/06/26 03:12:45;;;;;;;2.07;1.57;;;;;;;;;;5093868;28;20244;-71
2021/06/26 03:15:12;;;;;;;2.33;1.70;;;;;;;;;;5092698;28;20633;-70
2021/06/26 03:17:38;;;;;;;2.43;1.43;;;;;;;;;;5094021;28;20283;-70
2021/06/26 03:20:05;;;;;;;2.07;1.50;;;;;;;;;;5094029;28;20208;-70
2021/06/26 03:22:32;;;;;;;2.93;1.57;;;;;;;;;;5093637;28;20213;-70
2021/06/26 03:24:58;;;;;;;2.67;1.87;;;;;;;;;;5093210;28;20224;-70
2021/06/26 03:27:24;;;;;;;2.90;1.93;;;;;;;;;;5094007;28;20211;-70
2021/06/26 03:29:51;;;;;;;19.43;2.57;;;;;;;;;;5093974;28;20232;-71
2021/06/26 03:32:17;;;;;;;2.10;1.77;;;;;;;;;;5093847;28;20205;-70
2021/06/26 03:34:44;;;;;;;3.00;2.30;;;;;;;;;;5091708;28;20239;-71
2021/06/26 03:37:10;;;;;;;3.03;2.07;;;;;;;;;;5093987;28;20200;-71
2021/06/26 03:39:36;;;;;;;2.20;1.77;;;;;;;;;;5093862;28;20214;-70
2021/06/26 03:42:03;;;;;;;2.43;1.53;;;;;;;;;;5093620;28;20196;-71
2021/06/26 03:44:29;;;;;;;9.07;1.63;;;;;;;;;;5092782;28;20673;-71
2021/06/26 03:46:55;;;;;;;1.83;1.43;;;;;;;;;;5074820;28;20205;-71
2021/06/26 03:49:22;;;;;;;2.13;1.23;;;;;;;;;;5073243;28;20205;-71
2021/06/26 03:51:48;;;;;;;2.93;1.77;;;;;;;;;;5089074;28;20204;-70
2021/06/26 03:54:15;;;;;;;2.50;1.47;;;;;;;;;;5092761;28;20247;-71
2021/06/26 03:56:41;;;;;;;1.83;1.60;;;;;;;;;;5092262;28;20211;-71
2021/06/26 03:59:07;;;;;;;2.90;1.77;;;;;;;;;;5093432;28;20203;-71
2021/06/26 04:01:34;;;;;;;4.33;2.07;;;;;;;;;;5093121;28;20200;-71
2021/06/26 04:04:03;;;;;;;2.17;1.47;;;;;;;;;;5092450;28;20328;-71
2021/06/26 04:06:29;;;;;;;1.53;1.40;;;;;;;;;;5092914;28;20845;-71
2021/06/26 04:08:56;;;;;;;2.07;1.20;;;;;;;;;;5093173;28;20327;-71
2021/06/26 04:11:22;;;;;;;4.50;1.80;;;;;;;;;;5092833;28;20673;-71
2021/06/26 04:13:48;;;;;;;1.87;1.57;;;;;;;;;;5091961;28;20724;-71
2021/06/26 04:16:15;;;;;;;1.67;1.27;;;;;;;;;;5092579;28;20204;-70
2021/06/26 04:18:41;;;;;;;2.03;1.70;;;;;;;;;;5092727;28;20211;-71
2021/06/26 04:21:08;;;;;;;4.03;1.80;;;;;;;;;;5092748;28;20735;-71
2021/06/26 04:23:34;;;;;;;1.47;1.20;;;;;;;;;;5092219;28;20420;-72
2021/06/26 04:26:00;;;;;;;2.20;1.63;;;;;;;;;;5092683;28;20201;-72
2021/06/26 04:28:27;;;;;;;1.93;1.33;;;;;;;;;;5092594;28;20211;-71
2021/06/26 04:30:53;;;;;;;1.30;1.20;;;;;;;;;;5092588;28;20210;-71
2021/06/26 04:33:20;;;;;;;1.93;1.40;;;;;;;;;;5091759;28;20300;-73
2021/06/26 04:35:46;;;;;;;2.73;1.87;;;;;;;;;;5092244;28;20312;-73
2021/06/26 04:38:12;;;;;;;1.75;1.40;;;;;;;;;;5093274;28;20196;-73
2021/06/26 04:40:39;;;;;;;2.08;1.08;;;;;;;;;;5092957;28;20207;-71
2021/06/26 04:43:06;;;;;;;2.17;1.70;;;;;;;;;;5084992;28;20580;-73
2021/06/26 04:45:33;;;;;;;2.90;1.65;;;;;;;;;;5080601;28;20279;-72
2021/06/26 04:48:01;;;;;;;2.35;1.20;;;;;;;;;;5092482;28;20295;-72
2021/06/26 04:50:27;;;;;;;1.45;1.13;;;;;;;;;;5092382;28;20232;-72
2021/06/26 04:52:54;;;;;;;1.98;1.42;;;;;;;;;;5091761;28;20236;-72
2021/06/26 04:55:21;;;;;;;1.85;1.50;;;;;;;;;;5092082;28;20232;-73
2021/06/26 04:57:47;;;;;;;1.65;1.08;;;;;;;;;;5092344;28;20200;-72
2021/06/26 05:00:14;;;;;;;1.63;1.23;;;;;;;;;;5091989;28;20200;-72
2021/06/26 05:02:40;;;;;;;1.20;1.10;;;;;;;;;;5091656;28;20231;-73
2021/06/26 05:05:07;;;;;;;1.73;1.27;;;;;;;;;;5091622;28;20225;-72
2021/06/26 05:07:33;;;;;;;1.42;1.20;;;;;;;;;;5091969;28;20212;-72
2021/06/26 05:10:00;;;;;;;2.00;1.20;;;;;;;;;;5090790;28;20246;-71
2021/06/26 05:12:26;;;;;;;0.90;0.80;;;;;;;;;;5091817;28;20673;-72
2021/06/26 05:14:52;;;;;;;1.45;1.10;;;;;;;;;;5091056;28;20234;-72
2021/06/26 05:17:19;;;;;;;1.05;0.93;;;;;;;;;;5091445;28;20295;-72
2021/06/26 05:19:45;;;;;;;1.73;1.40;;;;;;;;;;5092023;28;20227;-72
2021/06/26 05:22:13;;;;;;;2.15;1.58;;;;;;;;;;5091855;28;20407;-72
2021/06/26 05:24:40;;;;;;;3.60;1.70;;;;;;;;;;5090999;28;20220;-72
2021/06/26 05:27:07;;;;;;;2.35;1.95;;;;;;;;;;5091688;28;20208;-72
2021/06/26 05:29:35;;;;;;;3.88;2.00;;;;;;;;;;5090434;28;20262;-72
2021/06/26 05:32:02;;;;;;;4.35;2.47;;;;;;;;;;5091898;28;20287;-72
2021/06/26 05:34:28;;;;;;;5.28;2.63;;;;;;;;;;5091122;28;20236;-71
2021/06/26 05:36:55;;;;;;;3.65;2.15;;;;;;;;;;5091849;28;20200;-72
2021/06/26 05:39:21;;;;;;;3.47;2.40;;;;;;;;;;5091753;28;20207;-71
2021/06/26 05:41:48;;;;;;;9.52;2.95;;;;;;;;;;5091664;28;20213;-72
2021/06/26 05:44:14;;;;;;;6.00;2.95;;;;;;;;;;5090475;28;20229;-72
2021/06/26 05:46:40;;;;;;;6.72;3.40;;;;;;;;;;5075279;28;20209;-72
2021/06/26 05:49:07;;;;;;;8.90;3.55;;;;;;;;;;5071382;28;20216;-72
2021/06/26 05:51:33;;;;;;;6.90;3.75;;;;;;;;;;5085289;28;20214;-72
2021/06/26 05:53:59;;;;;;;10.57;4.20;;;;;;;;;;5090526;28;20228;-72
2021/06/26 05:56:26;;;;;;;7.38;3.80;;;;;;;;;;5091247;28;20200;-72
2021/06/26 05:58:52;;;;;;;6.70;3.72;;;;;;;;;;5091333;28;20243;-72
2021/06/26 06:01:19;;;;;;;7.78;3.70;;;;;;;;;;5091637;28;20208;-73
2021/06/26 06:03:47;;;;;;;7.90;4.05;;;;;;;;;;5090676;28;20224;-72
2021/06/26 06:06:14;;;;;;;6.82;3.90;;;;;;;;;;5091419;28;20209;-71
2021/06/26 06:08:40;;;;;;;5.93;3.78;;;;;;;;;;5091476;28;20228;-72
2021/06/26 06:11:06;;;;;;;7.03;3.67;;;;;;;;;;5091119;28;20656;-72
2021/06/26 06:13:33;;;;;;;5.15;3.40;;;;;;;;;;5090417;28;20683;-72
2021/06/26 06:15:59;;;;;;;5.25;3.22;;;;;;;;;;5091309;28;20224;-72
2021/06/26 06:18:25;;;;;;;5.47;3.45;;;;;;;;;;5091224;28;20565;-71
2021/06/26 06:20:52;;;;;;;6.82;3.75;;;;;;;;;;5093418;28;20215;-72
2021/06/26 06:23:18;;;;;;;6.18;3.50;;;;;;;;;;5094373;28;20203;-72
2021/06/26 06:25:45;;;;;;;5.95;3.45;;;;;;;;;;5094981;28;20319;-71
2021/06/26 06:28:11;;;;;;;5.03;3.20;;;;;;;;;;5095026;28;20208;-72
2021/06/26 06:30:37;;;;;;;7.68;3.85;;;;;;;;;;5094012;28;20204;-72
2021/06/26 06:33:05;;;;;;;5.95;3.13;;;;;;;;;;5092866;28;20603;-72
2021/06/26 06:35:32;;;;;;;6.25;3.08;;;;;;;;;;5094735;28;20238;-72
2021/06/26 06:37:59;;;;;;;5.68;3.05;;;;;;;;;;5076914;28;20204;-72
2021/06/26 06:40:26;;;;;;;5.20;3.15;;;;;;;;;;5094761;28;20402;-72
2021/06/26 06:42:52;;;;;;;3.97;2.95;;;;;;;;;;5093746;28;20598;-71
2021/06/26 06:45:19;;;;;;;6.38;3.70;;;;;;;;;;5089574;28;20303;-72
2021/06/26 06:47:46;;;;;;;5.90;3.10;;;;;;;;;;5074187;28;20648;-72
2021/06/26 06:50:13;;;;;;;6.07;3.33;;;;;;;;;;5076734;28;20339;-71
2021/06/26 06:52:39;;;;;;;5.22;3.50;;;;;;;;;;5093053;28;20212;-72
2021/06/26 06:55:07;;;;;;;5.60;2.58;;;;;;;;;;5093380;28;20228;-71
2021/06/26 06:57:34;;;;;;;5.40;3.30;;;;;;;;;;5094079;28;20204;-72
2021/06/26 07:00:00;;;;;;;4.40;2.90;;;;;;;;;;5094276;28;20250;-72
2021/06/26 07:02:27;;;;;;;5.00;3.30;;;;;;;;;;5094099;28;20200;-72
2021/06/26 07:04:53;;;;;;;8.15;3.15;;;;;;;;;;5093499;28;20224;-72
2021/06/26 07:07:19;;;;;;;3.83;2.95;;;;;;;;;;5094090;28;20204;-72
2021/06/26 07:09:46;;;;;;;4.03;3.03;;;;;;;;;;5094143;28;20208;-72
2021/06/26 07:12:12;;;;;;;5.97;3.58;;;;;;;;;;5094559;28;20299;-72
2021/06/26 07:14:38;;;;;;;3.97;2.95;;;;;;;;;;5094091;28;20312;-73
2021/06/26 07:17:05;;;;;;;4.20;2.80;;;;;;;;;;5095121;28;20235;-73
2021/06/26 07:19:31;;;;;;;4.38;2.75;;;;;;;;;;5094792;28;20287;-71
2021/06/26 07:21:58;;;;;;;7.20;2.97;;;;;;;;;;5076069;28;20239;-71
2021/06/26 07:24:24;;;;;;;3.90;2.40;;;;;;;;;;5092867;28;20275;-71
2021/06/26 07:26:50;;;;;;;3.05;2.50;;;;;;;;;;5093958;28;20244;-72
2021/06/26 07:29:17;;;;;;;3.97;2.78;;;;;;;;;;5093629;28;20681;-72
2021/06/26 07:31:43;;;;;;;3.85;2.60;;;;;;;;;;5093452;28;20241;-72
2021/06/26 07:34:10;;;;;;;3.80;2.50;;;;;;;;;;5092494;28;20365;-71
2021/06/26 07:36:37;;;;;;;3.38;2.33;;;;;;;;;;5093035;28;20753;-72
2021/06/26 07:39:03;;;;;;;3.40;2.25;;;;;;;;;;5093057;28;20280;-72
2021/06/26 07:41:30;;;;;;;3.97;2.40;;;;;;;;;;5093063;28;20244;-71
2021/06/26 07:43:56;;;;;;;2.90;2.22;;;;;;;;;;5092080;28;20262;-72
2021/06/26 07:46:23;;;;;;;4.13;2.40;;;;;;;;;;5078699;28;20633;-72
2021/06/26 07:48:49;;;;;;;2.40;1.83;;;;;;;;;;5072652;28;20254;-72
2021/06/26 07:51:16;;;;;;;3.22;2.35;;;;;;;;;;5090964;28;20292;-72
2021/06/26 07:53:43;;;;;;;2.95;2.30;;;;;;;;;;5092281;28;20304;-72
2021/06/26 07:56:09;;;;;;;3.97;1.90;;;;;;;;;;5092564;28;20228;-72
2021/06/26 07:58:36;;;;;;;2.90;1.67;;;;;;;;;;5092554;28;20268;-72
2021/06/26 08:01:02;;;;;;;2.30;1.90;;;;;;;;;;5092772;28;20208;-72
2021/06/26 08:03:29;;;;;;;2.40;1.90;;;;;;;;;;5091931;28;20316;-71
2021/06/26 08:05:55;;;;;;;3.83;2.65;;;;;;;;;;5092582;28;20235;-72
2021/06/26 08:08:22;;;;;;;4.40;2.45;;;;;;;;;;5092576;28;20310;-72
2021/06/26 08:10:49;;;;;;;2.95;2.25;;;;;;;;;;5092741;28;20230;-72
2021/06/26 08:13:15;;;;;;;2.88;2.05;;;;;;;;;;5091939;28;20235;-72
2021/06/26 08:15:42;;;;;;;2.00;1.75;;;;;;;;;;5091407;28;20228;-72
2021/06/26 08:18:10;;;;;;;1.70;1.33;;;;;;;;;;5092005;28;20296;-71
2021/06/26 08:20:36;;;;;;;3.13;1.63;;;;;;;;;;5091825;28;20283;-72
2021/06/26 08:23:03;;;;;;;2.30;1.35;;;;;;;;;;5091190;28;20291;-73
2021/06/26 08:25:30;;;;;;;1.80;1.42;;;;;;;;;;5090826;28;20260;-72
2021/06/26 08:27:57;;;;;;;2.47;1.63;;;;;;;;;;5092315;28;20211;-70
2021/06/26 08:30:24;;;;;;;3.22;1.58;;;;;;;;;;5092076;28;20210;-71
2021/06/26 08:32:51;;;;;;;2.22;1.77;;;;;;;;;;5091358;28;20239;-71
2021/06/26 08:35:18;;;;;;;1.92;1.67;;;;;;;;;;5091673;28;20252;-71
2021/06/26 08:37:44;;;;;;;3.05;1.88;;;;;;;;;;5091875;28;20307;-71
2021/06/26 08:40:12;;;;;;;2.20;1.55;;;;;;;;;;5091903;28;20201;-71
2021/06/26 08:42:39;;;;;;;1.90;1.70;;;;;;;;;;5091223;28;20284;-73
2021/06/26 08:45:07;;;;;;;2.13;1.60;;;;;;;;;;5087169;28;20638;-71
2021/06/26 08:47:38;;;;;;;2.30;1.90;;;;;;;;;;5071087;28;20212;-73
2021/06/26 08:50:05;;;;;;;1.80;1.33;;;;;;;;;;5072912;28;20497;-71
2021/06/26 08:52:32;;;;;;;2.47;2.03;;;;;;;;;;5091317;28;20258;-71
2021/06/26 08:54:59;;;;;;;1.77;1.60;;;;;;;;;;5091070;28;20270;-71
2021/06/26 08:57:32;;;;;;;2.58;2.15;;;;;;;;;;5091623;28;20235;-72
2021/06/26 08:59:59;;;;;;;1.90;1.40;;;;;;;;;;5090623;28;20283;-71
2021/06/26 09:02:27;;;;;;;2.05;1.60;;;;;;;;;;5072763;28;20208;-71
2021/06/26 09:04:53;;;;;;;2.20;1.50;;;;;;;;;;5090014;28;20319;-73
2021/06/26 09:07:27;;;;;;;1.98;1.38;;;;;;;;;;5091032;28;20398;-71
2021/06/26 09:09:56;;;;;;;2.20;1.15;;;;;;;;;;5090604;28;20228;-72
2021/06/26 09:12:23;;;;;;;1.90;1.42;;;;;;;;;;5091119;28;20205;-72
2021/06/26 09:14:49;;;;;;;1.73;1.42;;;;;;;;;;5090039;28;20683;-72
2021/06/26 09:17:18;;;;;;;1.60;1.10;;;;;;;;;;5091250;28;20640;-72
2021/06/26 09:19:51;;;;;;;1.10;1.00;;;;;;;;;;5090002;28;20257;-72
2021/06/26 09:22:18;;;;;;;2.45;1.65;;;;;;;;;;5091258;28;20197;-71
2021/06/26 09:24:45;;;;;;;0.85;0.85;;;;;;;;;;5089761;28;20232;-72
2021/06/26 09:27:15;;;;;;;1.50;1.33;;;;;;;;;;5090297;28;20269;-71
2021/06/26 09:29:56;;;;;;;1.73;1.38;;;;;;;;;;5090916;28;20283;-72
2021/06/26 09:32:23;;;;;;;1.60;1.38;;;;;;;;;;5090064;28;20808;-72
2021/06/26 09:34:50;;;;;;;1.67;1.38;;;;;;;;;;5089535;28;20259;-72
2021/06/26 09:37:17;;;;;;;1.75;1.42;;;;;;;;;;5090759;28;20256;-70
2021/06/26 09:39:44;;;;;;;1.70;1.45;;;;;;;;;;5090480;28;20591;-71
2021/06/26 09:42:19;;;;;;;1.55;1.20;;;;;;;;;;5090577;28;20328;-71
2021/06/26 09:44:47;;;;;;;1.45;1.35;;;;;;;;;;5089646;28;20220;-70
2021/06/26 09:47:23;;;;;;;2.10;1.25;;;;;;;;;;5071179;28;20209;-71
2021/06/26 09:49:50;;;;;;;1.75;1.27;;;;;;;;;;5071694;28;20307;-72
2021/06/26 09:52:16;;;;;;;1.50;1.13;;;;;;;;;;5094107;28;20270;-70
2021/06/26 09:54:43;;;;;;;1.27;1.17;;;;;;;;;;5091260;28;20233;-70
2021/06/26 09:57:09;;;;;;;1.98;1.40;;;;;;;;;;5094487;28;20618;-70
2021/06/26 09:59:36;;;;;;;1.50;1.30;;;;;;;;;;5093134;28;20296;-70
2021/06/26 10:02:02;;;;;;;0.98;0.88;;;;;;;;;;5094173;28;20252;-70
2021/06/26 10:04:29;;;;;;;1.45;1.00;;;;;;;;;;5092923;28;20674;-70
2021/06/26 10:06:57;;;;;;;1.08;0.98;;;;;;;;;;5093330;28;20315;-70
2021/06/26 10:09:26;;;;;;;1.20;0.93;;;;;;;;;;5094356;28;20287;-70
2021/06/26 10:11:53;;;;;;;1.25;1.10;;;;;;;;;;5093004;28;20295;-70
2021/06/26 10:14:20;;;;;;;1.63;1.13;;;;;;;;;;5093026;28;20221;-71
2021/06/26 10:16:47;;;;;;;1.42;1.33;;;;;;;;;;5093761;28;20208;-71
2021/06/26 10:19:14;;;;;;;1.05;0.90;;;;;;;;;;5093556;28;20303;-70
2021/06/26 10:21:43;;;;;;;3.03;1.33;;;;;;;;;;5092058;28;20208;-71
2021/06/26 10:24:13;;;;;;;1.13;1.02;;;;;;;;;;5092739;28;20271;-70
2021/06/26 10:26:42;;;;;;;1.27;1.15;;;;;;;;;;5093050;28;20686;-70
2021/06/26 10:29:08;;;;;;;2.00;1.13;;;;;;;;;;5092157;28;20736;-70
2021/06/26 10:31:36;;;;;;;1.23;1.10;;;;;;;;;;5091651;28;20547;-70
2021/06/26 10:34:29;;;;;;;1.33;1.15;;;;;;;;;;5091999;28;20327;-71
2021/06/26 10:36:55;;;;;;;1.23;1.13;;;;;;;;;;5092329;28;20208;-69
2021/06/26 10:39:26;;;;;;;1.85;1.40;;;;;;;;;;5093546;28;20211;-70
2021/06/26 10:41:56;;;;;;;1.40;1.23;;;;;;;;;;5092988;28;20287;-69
2021/06/26 10:44:22;;;;;;;1.40;1.25;;;;;;;;;;5091801;28;20660;-70
2021/06/26 10:46:49;;;;;;;1.67;1.00;;;;;;;;;;5074629;28;20735;-70
2021/06/26 10:49:26;;;;;;;1.52;1.10;;;;;;;;;;5072666;28;20356;-70
2021/06/26 10:51:52;;;;;;;1.33;1.20;;;;;;;;;;5088459;28;20200;-70
2021/06/26 10:54:19;;;;;;;5.20;3.42;;;;;;;;;;5091220;28;20224;-70
2021/06/26 10:56:47;;;;;;;4.15;2.53;;;;;;;;;;5073560;28;20212;-70
2021/06/26 10:59:17;;;;;;;1.35;1.25;;;;;;;;;;5089792;28;20204;-69
2021/06/26 11:01:57;;;;;;;1.27;1.17;;;;;;;;;;5091436;28;20244;-70
2021/06/26 11:04:24;;;;;;;1.13;1.05;;;;;;;;;;5090952;28;20300;-69
2021/06/26 11:07:01;;;;;;;2.67;1.52;;;;;;;;;;5090962;28;20293;-71
2021/06/26 11:09:34;;;;;;;1.40;1.30;;;;;;;;;;5090530;28;20328;-69
2021/06/26 11:12:06;;;;;;;1.38;1.15;;;;;;;;;;5091641;28;20230;-71
2021/06/26 11:14:32;;;;;;;6.18;1.67;;;;;;;;;;5091048;28;20398;-71
2021/06/26 11:16:59;;;;;;;2.20;1.23;;;;;;;;;;5091975;28;20226;-70
2021/06/26 11:19:34;;;;;;;1.63;1.27;;;;;;;;;;5091199;28;20211;-69
2021/06/26 11:22:01;;;;;;;1.73;1.35;;;;;;;;;;5091076;28;20219;-69
2021/06/26 11:24:42;;;;;;;1.40;1.20;;;;;;;;;;5089391;28;20259;-70
2021/06/26 11:27:12;;;;;;;1.52;1.25;;;;;;;;;;5090124;28;20360;-69
2021/06/26 11:29:40;;;;;;;1.30;1.20;;;;;;;;;;5090617;28;20233;-70
2021/06/26 11:32:23;;;;;;;2.65;1.85;;;;;;;;;;5091079;28;20205;-70
2021/06/26 11:35:08;;;;;;;1.88;1.50;;;;;;;;;;5088778;28;20240;-70
2021/06/26 11:37:36;;;;;;;1.40;1.30;;;;;;;;;;5089207;28;20210;-71
2021/06/26 11:40:03;;;;;;;1.40;1.27;;;;;;;;;;5091164;28;20240;-69
2021/06/26 11:42:30;;;;;;;1.70;1.50;;;;;;;;;;5090631;28;20623;-70
2021/06/26 11:44:56;;;;;;;1.45;1.17;;;;;;;;;;5086890;28;20437;-69
2021/06/26 11:47:24;;;;;;;1.85;1.50;;;;;;;;;;5070263;28;20320;-69
2021/06/26 11:49:50;;;;;;;2.13;1.75;;;;;;;;;;5070281;28;20284;-72
2021/06/26 11:52:17;;;;;;;1.10;1.00;;;;;;;;;;5090061;28;20303;-70
2021/06/26 11:54:44;;;;;;;1.60;1.40;;;;;;;;;;5089024;28;20239;-70
2021/06/26 11:57:14;;;;;;;2.15;1.40;;;;;;;;;;5090572;28;20299;-69
2021/06/26 11:59:41;;;;;;;1.42;1.20;;;;;;;;;;5090292;28;20264;-70
2021/06/26 12:02:09;;;;;;;1.55;1.25;;;;;;;;;;5090121;28;20232;-69
2021/06/26 12:04:35;;;;;;;1.38;1.20;;;;;;;;;;5089453;28;20758;-69
2021/06/26 12:07:02;;;;;;;1.90;1.35;;;;;;;;;;5088638;28;20256;-70
2021/06/26 12:09:28;;;;;;;1.73;1.55;;;;;;;;;;5089083;28;20303;-71
2021/06/26 12:11:56;;;;;;;1.75;1.40;;;;;;;;;;5089478;28;20258;-70
2021/06/26 12:14:26;;;;;;;0.98;0.82;;;;;;;;;;5089319;28;20736;-70
2021/06/26 12:16:53;;;;;;;2.05;1.70;;;;;;;;;;5089786;28;20677;-70
2021/06/26 12:19:28;;;;;;;1.27;1.17;;;;;;;;;;5088793;28;20236;-71
2021/06/26 12:21:54;;;;;;;1.70;1.02;;;;;;;;;;5092083;28;20408;-70
2021/06/26 12:24:27;;;;;;;1.10;0.98;;;;;;;;;;5089317;28;20224;-71
2021/06/26 12:27:07;;;;;;;4.60;2.90;;;;;;;;;;5090250;28;20895;-71
2021/06/26 12:29:35;;;;;;;2.72;1.77;;;;;;;;;;5090158;28;20525;-71
2021/06/26 12:32:02;;;;;;;1.80;1.08;;;;;;;;;;5090387;28;20285;-71
2021/06/26 12:34:29;;;;;;;1.48;0.85;;;;;;;;;;5087991;28;20331;-71
2021/06/26 12:36:57;;;;;;;0.82;0.70;;;;;;;;;;5088799;28;20406;-71
2021/06/26 12:39:24;;;;;;;1.08;0.85;;;;;;;;;;5090300;28;20330;-71
2021/06/26 12:42:00;;;;;;;3.65;1.40;;;;;;;;;;5090524;28;20243;-72
2021/06/26 12:44:27;;;;;;;1.38;1.10;;;;;;;;;;5087390;28;20289;-69
2021/06/26 12:46:54;;;;;;;1.10;0.90;;;;;;;;;;5071262;28;20233;-70
2021/06/26 12:49:21;;;;;;;1.65;1.13;;;;;;;;;;5067839;28;20221;-72
2021/06/26 12:51:49;;;;;;;0.98;0.90;;;;;;;;;;5084533;28;20196;-70
2021/06/26 12:54:16;;;;;;;1.27;0.88;;;;;;;;;;5086899;28;20264;-70
2021/06/26 12:56:43;;;;;;;0.95;0.88;;;;;;;;;;5090129;28;20283;-69
2021/06/26 12:59:13;;;;;;;0.90;0.80;;;;;;;;;;5089221;28;20208;-68
2021/06/26 13:01:47;;;;;;;5.22;2.58;;;;;;;;;;5088859;28;20291;-70
2021/06/26 13:04:16;;;;;;;1.75;1.35;;;;;;;;;;5088142;28;20306;-70
2021/06/26 13:07:02;;;;;;;1.33;1.15;;;;;;;;;;5089072;28;20260;-71
2021/06/26 13:09:36;;;;;;;1.80;1.27;;;;;;;;;;5088615;28;20227;-69
2021/06/26 13:12:10;;;;;;;0.80;0.80;;;;;;;;;;5088270;28;20200;-69
2021/06/26 13:14:40;;;;;;;0.70;0.70;;;;;;;;;;5086336;28;20223;-70
2021/06/26 13:17:07;;;;;;;1.70;1.00;;;;;;;;;;5087852;28;20299;-69
2021/06/26 13:19:33;;;;;;;1.20;1.10;;;;;;;;;;5089289;28;20212;-69
2021/06/26 13:22:00;;;;;;;2.63;1.40;;;;;;;;;;5087817;28;20216;-71
2021/06/26 13:24:26;;;;;;;1.42;1.15;;;;;;;;;;5087506;28;20398;-71
2021/06/26 13:26:53;;;;;;;1.20;1.05;;;;;;;;;;5086042;28;20232;-71
2021/06/26 13:29:19;;;;;;;2.05;1.60;;;;;;;;;;5088041;28;20200;-71
2021/06/26 13:31:46;;;;;;;2.70;0.85;;;;;;;;;;5088880;28;20253;-71
2021/06/26 13:34:12;;;;;;;0.98;0.90;;;;;;;;;;5087442;28;20239;-71
2021/06/26 13:36:39;;;;;;;2.70;1.83;;;;;;;;;;5088183;28;20371;-71
2021/06/26 13:39:05;;;;;;;1.42;1.30;;;;;;;;;;5087986;28;20685;-70
2021/06/26 13:41:31;;;;;;;1.17;1.00;;;;;;;;;;5086321;28;20240;-71
2021/06/26 13:43:59;;;;;;;1.75;1.27;;;;;;;;;;5085913;28;20251;-71
2021/06/26 13:46:26;;;;;;;1.70;1.25;;;;;;;;;;5073760;28;20231;-71
2021/06/26 13:48:52;;;;;;;1.58;1.13;;;;;;;;;;5068175;28;20224;-71
2021/06/26 13:51:22;;;;;;;1.15;1.05;;;;;;;;;;5078239;28;20654;-71
2021/06/26 13:53:49;;;;;;;1.45;1.30;;;;;;;;;;5086029;28;20305;-71
2021/06/26 13:56:19;;;;;;;3.50;2.95;;;;;;;;;;5086534;28;20234;-71
2021/06/26 13:58:45;;;;;;;2.00;1.40;;;;;;;;;;5086391;28;20680;-71
2021/06/26 14:01:12;;;;;;;1.55;1.33;;;;;;;;;;5087980;28;20291;-71
2021/06/26 14:03:38;;;;;;;2.80;1.85;;;;;;;;;;5086580;28;20244;-71
2021/06/26 14:06:05;;;;;;;1.42;1.20;;;;;;;;;;5087547;28;20237;-72
2021/06/26 14:08:32;;;;;;;1.60;1.00;;;;;;;;;;5086882;28;20201;-70
2021/06/26 14:10:58;;;;;;;4.55;1.20;;;;;;;;;;5086679;28;20643;-70
2021/06/26 14:13:25;;;;;;;2.20;1.55;;;;;;;;;;5086514;28;20224;-70
2021/06/26 14:15:51;;;;;;;1.05;0.90;;;;;;;;;;5087564;28;20311;-71
2021/06/26 14:18:18;;;;;;;1.38;1.08;;;;;;;;;;5088015;28;20310;-72
2021/06/26 14:20:44;;;;;;;3.17;2.03;;;;;;;;;;5087596;28;20303;-71
2021/06/26 14:23:11;;;;;;;2.35;1.45;;;;;;;;;;5085228;28;20513;-73
2021/06/26 14:25:38;;;;;;;1.58;1.48;;;;;;;;;;5085500;28;20780;-72
2021/06/26 14:28:04;;;;;;;5.55;3.92;;;;;;;;;;5086624;28;20315;-73
2021/06/26 14:30:31;;;;;;;1.10;1.00;;;;;;;;;;5085776;28;20279;-72
2021/06/26 14:32:58;;;;;;;0.95;0.77;;;;;;;;;;5084896;28;20208;-73
2021/06/26 14:35:25;;;;;;;2.72;2.13;;;;;;;;;;5086997;28;20296;-71
2021/06/26 14:37:51;;;;;;;2.75;2.13;;;;;;;;;;5086066;28;20228;-72
2021/06/26 14:40:18;;;;;;;11.13;5.93;;;;;;;;;;5069951;28;20236;-71
2021/06/26 14:42:45;;;;;;;7.07;5.00;;;;;;;;;;5089040;28;20243;-70
2021/06/26 14:45:12;;;;;;;4.75;2.20;;;;;;;;;;5087354;28;20249;-72
2021/06/26 14:47:38;;;;;;;9.48;5.80;;;;;;;;;;5087078;28;20312;-72
2021/06/26 14:50:06;;;;;;;19.42;13.48;;;;;;;;;;5072704;28;20263;-72
2021/06/26 14:52:32;;;;;;;11.73;7.03;;;;;;;;;;5092561;28;20288;-71
2021/06/26 14:54:59;;;;;;;9.43;5.07;;;;;;;;;;5089793;28;20216;-72
2021/06/26 14:57:26;;;;;;;2.67;2.30;;;;;;;;;;5089468;28;20207;-72
2021/06/26 14:59:52;;;;;;;2.50;2.20;;;;;;;;;;5090146;28;20254;-71
2021/06/26 15:02:21;;;;;;;1.17;1.00;;;;;;;;;;5089928;28;20292;-71
2021/06/26 15:04:48;;;;;;;1.75;1.55;;;;;;;;;;5088064;28;20761;-73
2021/06/26 15:07:14;;;;;;;2.50;1.42;;;;;;;;;;5072760;28;20228;-72
2021/06/26 15:09:41;;;;;;;1.27;1.17;;;;;;;;;;5089601;28;20283;-71
2021/06/26 15:12:07;;;;;;;3.30;2.30;;;;;;;;;;5089124;28;20660;-70
2021/06/26 15:14:34;;;;;;;3.30;2.85;;;;;;;;;;5088140;28;20220;-71
2021/06/26 15:17:00;;;;;;;4.47;2.78;;;;;;;;;;5088435;28;20204;-70
2021/06/26 15:19:27;;;;;;;10.18;6.40;;;;;;;;;;5089462;28;20297;-70